sensor_id;sensor_type;location;lat;lon;timestamp;P1;durP1;ratioP1;P2;durP2;ratioP2
13202;SDS011;6666;51.626;7.530;2023-03-01T00:01:22;7.05;;;3.90;;
13202;SDS011;6666;51.626;7.530;2023-03-01T00:03:52;6.45;;;3.97;;
13202;SDS011;6666;51.626;7.530;2023-03-01T00:06:23;14.05;;;4.78;;
13202;SDS011;6666;51.626;7.530;2023-03-01T00:08:52;6.50;;;4.40;;
13202;SDS011;6666;51.626;7.530;2023-03-01T00:11:21;5.93;;;4.20;;
13202;SDS011;6666;51.626;7.530;2023-03-01T00:13:52;9.40;;;4.30;;
13202;SDS011;6666;51.626;7.530;2023-03-01T00:16:22;7.70;;;4.80;;
13202;SDS011;6666;51.626;7.530;2023-03-01T00:18:53;8.90;;;4.40;;
13202;SDS011;6666;51.626;7.530;2023-03-01T00:21:23;7.78;;;4.30;;
13202;SDS011;6666;51.626;7.530;2023-03-01T00:23:53;6.00;;;4.18;;
13202;SDS011;6666;51.626;7.530;2023-03-01T00:26:22;8.07;;;4.45;;
13202;SDS011;6666;51.626;7.530;2023-03-01T00:28:52;8.80;;;4.80;;
13202;SDS011;6666;51.626;7.530;2023-03-01T00:31:22;7.43;;;4.47;;
13202;SDS011;6666;51.626;7.530;2023-03-01T00:33:52;9.75;;;4.75;;
13202;SDS011;6666;51.626;7.530;2023-03-01T00:36:26;9.18;;;4.90;;
13202;SDS011;6666;51.626;7.530;2023-03-01T00:38:56;8.80;;;4.63;;
13202;SDS011;6666;51.626;7.530;2023-03-01T00:41:25;8.18;;;4.90;;
13202;SDS011;6666;51.626;7.530;2023-03-01T00:43:53;7.68;;;4.60;;
13202;SDS011;6666;51.626;7.530;2023-03-01T00:46:22;6.65;;;4.30;;
13202;SDS011;6666;51.626;7.530;2023-03-01T00:48:53;7.80;;;4.70;;
13202;SDS011;6666;51.626;7.530;2023-03-01T00:51:22;7.07;;;4.72;;
13202;SDS011;6666;51.626;7.530;2023-03-01T00:53:56;6.72;;;4.80;;
13202;SDS011;6666;51.626;7.530;2023-03-01T00:56:25;6.50;;;4.20;;
13202;SDS011;6666;51.626;7.530;2023-03-01T00:58:54;7.47;;;4.38;;
13202;SDS011;6666;51.626;7.530;2023-03-01T01:01:23;9.75;;;4.30;;
13202;SDS011;6666;51.626;7.530;2023-03-01T01:03:55;6.00;;;4.10;;
13202;SDS011;6666;51.626;7.530;2023-03-01T01:06:26;8.27;;;4.15;;
13202;SDS011;6666;51.626;7.530;2023-03-01T01:08:57;7.45;;;4.50;;
13202;SDS011;6666;51.626;7.530;2023-03-01T01:11:27;6.75;;;4.20;;
13202;SDS011;6666;51.626;7.530;2023-03-01T01:13:57;7.47;;;4.40;;
13202;SDS011;6666;51.626;7.530;2023-03-01T01:16:28;7.18;;;4.60;;
13202;SDS011;6666;51.626;7.530;2023-03-01T01:18:57;6.55;;;4.18;;
13202;SDS011;6666;51.626;7.530;2023-03-01T01:21:28;7.43;;;4.32;;
13202;SDS011;6666;51.626;7.530;2023-03-01T01:23:57;6.35;;;4.40;;
13202;SDS011;6666;51.626;7.530;2023-03-01T01:26:25;6.63;;;4.30;;
13202;SDS011;6666;51.626;7.530;2023-03-01T01:28:56;8.20;;;4.80;;
13202;SDS011;6666;51.626;7.530;2023-03-01T01:31:25;7.07;;;4.10;;
13202;SDS011;6666;51.626;7.530;2023-03-01T01:33:55;6.60;;;4.50;;
13202;SDS011;6666;51.626;7.530;2023-03-01T01:36:24;8.18;;;4.70;;
13202;SDS011;6666;51.626;7.530;2023-03-01T01:38:54;8.05;;;4.70;;
13202;SDS011;6666;51.626;7.530;2023-03-01T01:41:23;7.27;;;4.50;;
13202;SDS011;6666;51.626;7.530;2023-03-01T01:46:40;8.85;;;4.40;;
13202;SDS011;6666;51.626;7.530;2023-03-01T01:49:12;10.00;;;4.60;;
13202;SDS011;6666;51.626;7.530;2023-03-01T01:51:54;7.72;;;4.30;;
13202;SDS011;6666;51.626;7.530;2023-03-01T01:54:29;7.45;;;4.55;;
13202;SDS011;6666;51.626;7.530;2023-03-01T01:57:04;6.75;;;4.50;;
13202;SDS011;6666;51.626;7.530;2023-03-01T01:59:36;6.03;;;4.37;;
13202;SDS011;6666;51.626;7.530;2023-03-01T02:02:05;6.72;;;4.78;;
13202;SDS011;6666;51.626;7.530;2023-03-01T02:04:33;6.55;;;4.05;;
13202;SDS011;6666;51.626;7.530;2023-03-01T02:07:03;6.63;;;4.30;;
13202;SDS011;6666;51.626;7.530;2023-03-01T02:09:38;9.73;;;4.40;;
13202;SDS011;6666;51.626;7.530;2023-03-01T02:12:07;7.78;;;4.70;;
13202;SDS011;6666;51.626;7.530;2023-03-01T02:14:35;7.43;;;4.68;;
13202;SDS011;6666;51.626;7.530;2023-03-01T02:17:04;8.00;;;4.30;;
13202;SDS011;6666;51.626;7.530;2023-03-01T02:19:40;8.38;;;4.05;;
13202;SDS011;6666;51.626;7.530;2023-03-01T02:22:18;9.20;;;4.55;;
13202;SDS011;6666;51.626;7.530;2023-03-01T02:24:56;6.35;;;4.63;;
13202;SDS011;6666;51.626;7.530;2023-03-01T02:27:36;7.80;;;4.30;;
13202;SDS011;6666;51.626;7.530;2023-03-01T02:30:10;6.75;;;4.30;;
13202;SDS011;6666;51.626;7.530;2023-03-01T02:32:40;7.20;;;4.20;;
13202;SDS011;6666;51.626;7.530;2023-03-01T02:35:09;8.68;;;4.63;;
13202;SDS011;6666;51.626;7.530;2023-03-01T02:37:41;7.93;;;4.37;;
13202;SDS011;6666;51.626;7.530;2023-03-01T02:40:12;8.67;;;4.67;;
13202;SDS011;6666;51.626;7.530;2023-03-01T02:42:46;7.10;;;4.03;;
13202;SDS011;6666;51.626;7.530;2023-03-01T02:45:19;7.47;;;4.50;;
13202;SDS011;6666;51.626;7.530;2023-03-01T02:47:49;8.32;;;4.95;;
13202;SDS011;6666;51.626;7.530;2023-03-01T02:50:22;7.55;;;4.95;;
13202;SDS011;6666;51.626;7.530;2023-03-01T02:53:04;9.57;;;4.33;;
13202;SDS011;6666;51.626;7.530;2023-03-01T02:55:38;8.30;;;4.97;;
13202;SDS011;6666;51.626;7.530;2023-03-01T02:58:07;7.88;;;4.70;;
13202;SDS011;6666;51.626;7.530;2023-03-01T03:00:38;8.30;;;4.43;;
13202;SDS011;6666;51.626;7.530;2023-03-01T03:03:13;7.35;;;4.60;;
13202;SDS011;6666;51.626;7.530;2023-03-01T03:05:44;7.35;;;4.50;;
13202;SDS011;6666;51.626;7.530;2023-03-01T03:08:15;11.70;;;5.13;;
13202;SDS011;6666;51.626;7.530;2023-03-01T03:10:51;6.00;;;4.50;;
13202;SDS011;6666;51.626;7.530;2023-03-01T03:13:19;9.35;;;4.72;;
13202;SDS011;6666;51.626;7.530;2023-03-01T03:15:52;8.18;;;5.13;;
13202;SDS011;6666;51.626;7.530;2023-03-01T03:18:21;7.35;;;4.93;;
13202;SDS011;6666;51.626;7.530;2023-03-01T03:20:52;8.00;;;4.40;;
13202;SDS011;6666;51.626;7.530;2023-03-01T03:23:21;10.35;;;5.20;;
13202;SDS011;6666;51.626;7.530;2023-03-01T03:25:50;9.23;;;4.40;;
13202;SDS011;6666;51.626;7.530;2023-03-01T03:28:18;7.65;;;4.43;;
13202;SDS011;6666;51.626;7.530;2023-03-01T03:30:46;7.47;;;4.60;;
13202;SDS011;6666;51.626;7.530;2023-03-01T03:33:17;6.72;;;4.60;;
13202;SDS011;6666;51.626;7.530;2023-03-01T03:35:46;7.80;;;4.60;;
13202;SDS011;6666;51.626;7.530;2023-03-01T03:38:16;7.05;;;4.50;;
13202;SDS011;6666;51.626;7.530;2023-03-01T03:40:49;7.93;;;4.40;;
13202;SDS011;6666;51.626;7.530;2023-03-01T03:43:18;9.40;;;4.90;;
13202;SDS011;6666;51.626;7.530;2023-03-01T03:45:48;7.32;;;4.55;;
13202;SDS011;6666;51.626;7.530;2023-03-01T03:48:19;8.30;;;4.80;;
13202;SDS011;6666;51.626;7.530;2023-03-01T03:50:48;8.88;;;5.35;;
13202;SDS011;6666;51.626;7.530;2023-03-01T03:53:18;7.05;;;4.68;;
13202;SDS011;6666;51.626;7.530;2023-03-01T03:55:49;8.68;;;4.80;;
13202;SDS011;6666;51.626;7.530;2023-03-01T03:58:18;10.18;;;5.20;;
13202;SDS011;6666;51.626;7.530;2023-03-01T04:00:48;10.02;;;4.45;;
13202;SDS011;6666;51.626;7.530;2023-03-01T04:03:19;8.70;;;4.95;;
13202;SDS011;6666;51.626;7.530;2023-03-01T04:05:48;6.68;;;4.38;;
13202;SDS011;6666;51.626;7.530;2023-03-01T04:08:17;7.40;;;4.30;;
13202;SDS011;6666;51.626;7.530;2023-03-01T04:10:47;7.05;;;4.55;;
13202;SDS011;6666;51.626;7.530;2023-03-01T04:13:17;8.63;;;4.60;;
13202;SDS011;6666;51.626;7.530;2023-03-01T04:15:49;7.43;;;4.57;;
13202;SDS011;6666;51.626;7.530;2023-03-01T04:18:20;7.60;;;4.80;;
13202;SDS011;6666;51.626;7.530;2023-03-01T04:20:49;7.47;;;4.60;;
13202;SDS011;6666;51.626;7.530;2023-03-01T04:23:21;8.50;;;4.50;;
13202;SDS011;6666;51.626;7.530;2023-03-01T04:25:50;7.90;;;4.93;;
13202;SDS011;6666;51.626;7.530;2023-03-01T04:28:22;8.18;;;4.80;;
13202;SDS011;6666;51.626;7.530;2023-03-01T04:30:51;9.38;;;5.40;;
13202;SDS011;6666;51.626;7.530;2023-03-01T04:33:22;7.60;;;5.30;;
13202;SDS011;6666;51.626;7.530;2023-03-01T04:35:51;10.30;;;5.63;;
13202;SDS011;6666;51.626;7.530;2023-03-01T04:38:20;9.30;;;4.70;;
13202;SDS011;6666;51.626;7.530;2023-03-01T04:40:48;8.55;;;4.90;;
13202;SDS011;6666;51.626;7.530;2023-03-01T04:43:16;7.10;;;4.50;;
13202;SDS011;6666;51.626;7.530;2023-03-01T04:45:45;7.43;;;4.57;;
13202;SDS011;6666;51.626;7.530;2023-03-01T04:48:13;9.95;;;5.00;;
13202;SDS011;6666;51.626;7.530;2023-03-01T04:50:43;9.88;;;4.35;;
13202;SDS011;6666;51.626;7.530;2023-03-01T04:53:11;8.75;;;5.18;;
13202;SDS011;6666;51.626;7.530;2023-03-01T04:55:40;7.05;;;4.70;;
13202;SDS011;6666;51.626;7.530;2023-03-01T04:58:08;7.03;;;4.60;;
13202;SDS011;6666;51.626;7.530;2023-03-01T05:00:36;7.13;;;4.70;;
13202;SDS011;6666;51.626;7.530;2023-03-01T05:03:04;8.05;;;4.80;;
13202;SDS011;6666;51.626;7.530;2023-03-01T05:05:33;11.20;;;5.70;;
13202;SDS011;6666;51.626;7.530;2023-03-01T05:08:05;9.15;;;5.10;;
13202;SDS011;6666;51.626;7.530;2023-03-01T05:10:35;6.60;;;4.63;;
13202;SDS011;6666;51.626;7.530;2023-03-01T05:13:05;10.23;;;5.00;;
13202;SDS011;6666;51.626;7.530;2023-03-01T05:15:34;8.25;;;4.40;;
13202;SDS011;6666;51.626;7.530;2023-03-01T05:18:03;8.57;;;5.18;;
13202;SDS011;6666;51.626;7.530;2023-03-01T05:20:33;9.25;;;4.95;;
13202;SDS011;6666;51.626;7.530;2023-03-01T05:23:04;10.20;;;4.85;;
13202;SDS011;6666;51.626;7.530;2023-03-01T05:25:33;9.45;;;5.20;;
13202;SDS011;6666;51.626;7.530;2023-03-01T05:28:06;8.85;;;5.40;;
13202;SDS011;6666;51.626;7.530;2023-03-01T05:30:37;9.95;;;5.80;;
13202;SDS011;6666;51.626;7.530;2023-03-01T05:33:06;8.00;;;5.03;;
13202;SDS011;6666;51.626;7.530;2023-03-01T05:35:40;10.97;;;5.40;;
13202;SDS011;6666;51.626;7.530;2023-03-01T05:38:11;8.20;;;5.45;;
13202;SDS011;6666;51.626;7.530;2023-03-01T05:40:40;10.27;;;5.50;;
13202;SDS011;6666;51.626;7.530;2023-03-01T05:43:10;9.80;;;4.80;;
13202;SDS011;6666;51.626;7.530;2023-03-01T05:56:28;8.23;;;4.70;;
13202;SDS011;6666;51.626;7.530;2023-03-01T05:58:57;10.73;;;5.63;;
13202;SDS011;6666;51.626;7.530;2023-03-01T06:01:26;8.65;;;4.43;;
13202;SDS011;6666;51.626;7.530;2023-03-01T06:03:54;8.35;;;4.97;;
13202;SDS011;6666;51.626;7.530;2023-03-01T06:06:23;11.50;;;5.70;;
13202;SDS011;6666;51.626;7.530;2023-03-01T06:08:54;8.70;;;5.00;;
13202;SDS011;6666;51.626;7.530;2023-03-01T06:11:24;9.67;;;5.50;;
13202;SDS011;6666;51.626;7.530;2023-03-01T06:13:52;10.10;;;6.05;;
13202;SDS011;6666;51.626;7.530;2023-03-01T06:16:20;11.38;;;6.07;;
13202;SDS011;6666;51.626;7.530;2023-03-01T06:18:49;8.80;;;5.57;;
13202;SDS011;6666;51.626;7.530;2023-03-01T06:21:17;8.85;;;5.93;;
13202;SDS011;6666;51.626;7.530;2023-03-01T06:23:45;9.52;;;6.65;;
13202;SDS011;6666;51.626;7.530;2023-03-01T06:26:13;13.68;;;7.45;;
13202;SDS011;6666;51.626;7.530;2023-03-01T06:28:43;10.55;;;6.28;;
13202;SDS011;6666;51.626;7.530;2023-03-01T06:31:13;9.98;;;5.95;;
13202;SDS011;6666;51.626;7.530;2023-03-01T06:33:41;11.57;;;5.90;;
13202;SDS011;6666;51.626;7.530;2023-03-01T06:36:11;10.68;;;5.70;;
13202;SDS011;6666;51.626;7.530;2023-03-01T06:38:39;10.45;;;6.00;;
13202;SDS011;6666;51.626;7.530;2023-03-01T06:41:07;10.52;;;6.00;;
13202;SDS011;6666;51.626;7.530;2023-03-01T06:43:36;8.80;;;5.28;;
13202;SDS011;6666;51.626;7.530;2023-03-01T06:46:06;9.15;;;5.38;;
13202;SDS011;6666;51.626;7.530;2023-03-01T06:48:34;11.93;;;5.57;;
13202;SDS011;6666;51.626;7.530;2023-03-01T06:51:03;11.30;;;5.15;;
13202;SDS011;6666;51.626;7.530;2023-03-01T06:53:31;9.30;;;5.40;;
13202;SDS011;6666;51.626;7.530;2023-03-01T06:55:59;9.70;;;5.28;;
13202;SDS011;6666;51.626;7.530;2023-03-01T06:58:27;8.85;;;4.95;;
13202;SDS011;6666;51.626;7.530;2023-03-01T07:00:56;7.60;;;5.50;;
13202;SDS011;6666;51.626;7.530;2023-03-01T07:03:25;11.52;;;5.93;;
13202;SDS011;6666;51.626;7.530;2023-03-01T07:05:54;11.90;;;6.00;;
13202;SDS011;6666;51.626;7.530;2023-03-01T07:08:22;10.13;;;5.30;;
13202;SDS011;6666;51.626;7.530;2023-03-01T07:10:54;10.40;;;5.80;;
13202;SDS011;6666;51.626;7.530;2023-03-01T07:13:23;13.05;;;5.60;;
13202;SDS011;6666;51.626;7.530;2023-03-01T07:15:51;9.27;;;5.20;;
13202;SDS011;6666;51.626;7.530;2023-03-01T07:18:20;9.63;;;5.40;;
13202;SDS011;6666;51.626;7.530;2023-03-01T07:20:49;8.25;;;5.22;;
13202;SDS011;6666;51.626;7.530;2023-03-01T07:23:18;7.82;;;5.03;;
13202;SDS011;6666;51.626;7.530;2023-03-01T07:25:50;8.15;;;5.18;;
13202;SDS011;6666;51.626;7.530;2023-03-01T07:28:20;10.88;;;6.00;;
13202;SDS011;6666;51.626;7.530;2023-03-01T07:30:49;10.73;;;5.97;;
13202;SDS011;6666;51.626;7.530;2023-03-01T07:33:17;11.57;;;6.00;;
13202;SDS011;6666;51.626;7.530;2023-03-01T07:35:46;12.67;;;6.03;;
13202;SDS011;6666;51.626;7.530;2023-03-01T07:38:15;11.65;;;6.00;;
13202;SDS011;6666;51.626;7.530;2023-03-01T07:40:44;10.68;;;6.40;;
13202;SDS011;6666;51.626;7.530;2023-03-01T07:43:12;10.13;;;5.40;;
13202;SDS011;6666;51.626;7.530;2023-03-01T07:45:40;11.82;;;5.50;;
13202;SDS011;6666;51.626;7.530;2023-03-01T07:48:09;9.35;;;5.70;;
13202;SDS011;6666;51.626;7.530;2023-03-01T07:50:38;8.95;;;5.50;;
13202;SDS011;6666;51.626;7.530;2023-03-01T07:53:06;11.30;;;5.07;;
13202;SDS011;6666;51.626;7.530;2023-03-01T07:55:36;7.82;;;5.50;;
13202;SDS011;6666;51.626;7.530;2023-03-01T07:58:04;9.40;;;6.15;;
13202;SDS011;6666;51.626;7.530;2023-03-01T08:00:33;10.10;;;6.20;;
13202;SDS011;6666;51.626;7.530;2023-03-01T08:03:01;9.25;;;5.10;;
13202;SDS011;6666;51.626;7.530;2023-03-01T08:05:29;8.85;;;5.45;;
13202;SDS011;6666;51.626;7.530;2023-03-01T08:07:58;10.60;;;5.70;;
13202;SDS011;6666;51.626;7.530;2023-03-01T08:10:26;9.10;;;5.80;;
13202;SDS011;6666;51.626;7.530;2023-03-01T08:12:56;8.98;;;5.40;;
13202;SDS011;6666;51.626;7.530;2023-03-01T08:15:24;9.48;;;5.47;;
13202;SDS011;6666;51.626;7.530;2023-03-01T08:17:52;9.40;;;5.90;;
13202;SDS011;6666;51.626;7.530;2023-03-01T08:20:21;11.60;;;6.03;;
13202;SDS011;6666;51.626;7.530;2023-03-01T08:22:49;10.30;;;5.70;;
13202;SDS011;6666;51.626;7.530;2023-03-01T08:25:17;12.20;;;5.03;;
13202;SDS011;6666;51.626;7.530;2023-03-01T08:27:45;13.77;;;5.90;;
13202;SDS011;6666;51.626;7.530;2023-03-01T08:30:15;10.15;;;5.50;;
13202;SDS011;6666;51.626;7.530;2023-03-01T08:32:44;9.68;;;5.60;;
13202;SDS011;6666;51.626;7.530;2023-03-01T08:35:13;8.27;;;5.30;;
13202;SDS011;6666;51.626;7.530;2023-03-01T08:37:41;12.23;;;6.18;;
13202;SDS011;6666;51.626;7.530;2023-03-01T08:40:10;9.48;;;5.68;;
13202;SDS011;6666;51.626;7.530;2023-03-01T08:42:40;10.98;;;5.60;;
13202;SDS011;6666;51.626;7.530;2023-03-01T08:45:09;8.50;;;5.07;;
13202;SDS011;6666;51.626;7.530;2023-03-01T08:47:40;10.10;;;5.10;;
13202;SDS011;6666;51.626;7.530;2023-03-01T08:50:09;8.40;;;5.43;;
13202;SDS011;6666;51.626;7.530;2023-03-01T08:52:37;12.45;;;5.97;;
13202;SDS011;6666;51.626;7.530;2023-03-01T08:55:06;9.30;;;4.83;;
13202;SDS011;6666;51.626;7.530;2023-03-01T08:57:35;9.15;;;5.35;;
13202;SDS011;6666;51.626;7.530;2023-03-01T09:00:04;10.85;;;5.97;;
13202;SDS011;6666;51.626;7.530;2023-03-01T09:02:35;7.88;;;5.00;;
13202;SDS011;6666;51.626;7.530;2023-03-01T09:05:06;10.15;;;5.13;;
13202;SDS011;6666;51.626;7.530;2023-03-01T09:07:34;11.13;;;5.55;;
13202;SDS011;6666;51.626;7.530;2023-03-01T09:10:03;8.20;;;4.70;;
13202;SDS011;6666;51.626;7.530;2023-03-01T09:12:32;7.30;;;5.50;;
13202;SDS011;6666;51.626;7.530;2023-03-01T09:15:00;8.63;;;5.10;;
13202;SDS011;6666;51.626;7.530;2023-03-01T09:17:28;8.95;;;5.25;;
13202;SDS011;6666;51.626;7.530;2023-03-01T09:19:57;10.47;;;5.30;;
13202;SDS011;6666;51.626;7.530;2023-03-01T09:22:27;8.85;;;5.00;;
13202;SDS011;6666;51.626;7.530;2023-03-01T09:24:55;8.88;;;5.13;;
13202;SDS011;6666;51.626;7.530;2023-03-01T09:27:25;9.57;;;4.80;;
13202;SDS011;6666;51.626;7.530;2023-03-01T09:29:54;7.50;;;4.63;;
13202;SDS011;6666;51.626;7.530;2023-03-01T09:32:22;7.83;;;5.13;;
13202;SDS011;6666;51.626;7.530;2023-03-01T09:34:51;8.40;;;4.80;;
13202;SDS011;6666;51.626;7.530;2023-03-01T09:37:35;8.98;;;4.60;;
13202;SDS011;6666;51.626;7.530;2023-03-01T09:40:05;9.15;;;4.30;;
13202;SDS011;6666;51.626;7.530;2023-03-01T09:42:51;7.90;;;5.00;;
13202;SDS011;6666;51.626;7.530;2023-03-01T09:45:27;7.07;;;4.65;;
13202;SDS011;6666;51.626;7.530;2023-03-01T09:48:00;6.63;;;4.03;;
13202;SDS011;6666;51.626;7.530;2023-03-01T09:50:32;9.07;;;4.50;;
13202;SDS011;6666;51.626;7.530;2023-03-01T09:53:05;9.13;;;4.50;;
13202;SDS011;6666;51.626;7.530;2023-03-01T09:55:38;8.52;;;4.05;;
13202;SDS011;6666;51.626;7.530;2023-03-01T09:58:22;8.20;;;3.70;;
13202;SDS011;6666;51.626;7.530;2023-03-01T10:01:10;7.53;;;3.97;;
13202;SDS011;6666;51.626;7.530;2023-03-01T10:04:12;6.38;;;3.83;;
13202;SDS011;6666;51.626;7.530;2023-03-01T10:06:58;7.43;;;3.70;;
13202;SDS011;6666;51.626;7.530;2023-03-01T10:09:35;8.40;;;3.80;;
13202;SDS011;6666;51.626;7.530;2023-03-01T10:12:08;7.70;;;3.97;;
13202;SDS011;6666;51.626;7.530;2023-03-01T10:14:39;6.82;;;3.95;;
13202;SDS011;6666;51.626;7.530;2023-03-01T10:17:15;7.83;;;3.40;;
13202;SDS011;6666;51.626;7.530;2023-03-01T10:19:51;6.37;;;3.60;;
13202;SDS011;6666;51.626;7.530;2023-03-01T10:22:20;4.70;;;3.30;;
13202;SDS011;6666;51.626;7.530;2023-03-01T10:24:53;5.93;;;4.05;;
13202;SDS011;6666;51.626;7.530;2023-03-01T10:27:24;5.82;;;3.53;;
13202;SDS011;6666;51.626;7.530;2023-03-01T10:29:57;7.43;;;3.75;;
13202;SDS011;6666;51.626;7.530;2023-03-01T10:32:33;9.60;;;3.97;;
13202;SDS011;6666;51.626;7.530;2023-03-01T10:35:14;5.72;;;3.40;;
13202;SDS011;6666;51.626;7.530;2023-03-01T10:37:57;6.93;;;3.65;;
13202;SDS011;6666;51.626;7.530;2023-03-01T10:40:31;6.07;;;3.28;;
13202;SDS011;6666;51.626;7.530;2023-03-01T10:43:00;6.63;;;3.47;;
13202;SDS011;6666;51.626;7.530;2023-03-01T10:45:32;7.60;;;3.15;;
13202;SDS011;6666;51.626;7.530;2023-03-01T10:48:03;6.80;;;3.90;;
13202;SDS011;6666;51.626;7.530;2023-03-01T10:50:33;6.47;;;3.20;;
13202;SDS011;6666;51.626;7.530;2023-03-01T10:53:05;8.45;;;3.90;;
13202;SDS011;6666;51.626;7.530;2023-03-01T10:55:57;6.70;;;4.00;;
13202;SDS011;6666;51.626;7.530;2023-03-01T10:58:28;5.80;;;3.63;;
13202;SDS011;6666;51.626;7.530;2023-03-01T11:00:58;5.05;;;3.22;;
13202;SDS011;6666;51.626;7.530;2023-03-01T11:03:29;7.70;;;3.60;;
13202;SDS011;6666;51.626;7.530;2023-03-01T11:06:01;8.03;;;4.20;;
13202;SDS011;6666;51.626;7.530;2023-03-01T11:08:41;5.73;;;3.70;;
13202;SDS011;6666;51.626;7.530;2023-03-01T11:11:20;5.93;;;4.07;;
13202;SDS011;6666;51.626;7.530;2023-03-01T11:13:53;6.97;;;3.90;;
13202;SDS011;6666;51.626;7.530;2023-03-01T11:16:24;6.10;;;4.10;;
13202;SDS011;6666;51.626;7.530;2023-03-01T11:18:58;7.35;;;3.70;;
13202;SDS011;6666;51.626;7.530;2023-03-01T11:21:29;6.32;;;4.20;;
13202;SDS011;6666;51.626;7.530;2023-03-01T11:24:00;6.50;;;4.00;;
13202;SDS011;6666;51.626;7.530;2023-03-01T11:26:33;8.55;;;4.20;;
13202;SDS011;6666;51.626;7.530;2023-03-01T11:29:06;6.05;;;4.15;;
13202;SDS011;6666;51.626;7.530;2023-03-01T11:31:40;5.35;;;3.53;;
13202;SDS011;6666;51.626;7.530;2023-03-01T11:34:23;7.23;;;3.73;;
13202;SDS011;6666;51.626;7.530;2023-03-01T11:37:02;7.05;;;4.20;;
13202;SDS011;6666;51.626;7.530;2023-03-01T11:39:37;6.68;;;4.00;;
13202;SDS011;6666;51.626;7.530;2023-03-01T11:42:11;7.75;;;4.07;;
13202;SDS011;6666;51.626;7.530;2023-03-01T11:44:45;6.90;;;3.70;;
13202;SDS011;6666;51.626;7.530;2023-03-01T11:47:20;7.40;;;4.65;;
13202;SDS011;6666;51.626;7.530;2023-03-01T11:50:10;7.10;;;3.88;;
13202;SDS011;6666;51.626;7.530;2023-03-01T11:52:48;7.32;;;4.40;;
13202;SDS011;6666;51.626;7.530;2023-03-01T11:55:30;15.45;;;4.70;;
13202;SDS011;6666;51.626;7.530;2023-03-01T11:58:18;8.07;;;4.47;;
13202;SDS011;6666;51.626;7.530;2023-03-01T12:01:00;7.20;;;4.13;;
13202;SDS011;6666;51.626;7.530;2023-03-01T12:03:40;5.95;;;3.72;;
13202;SDS011;6666;51.626;7.530;2023-03-01T12:06:39;6.73;;;4.03;;
13202;SDS011;6666;51.626;7.530;2023-03-01T12:09:20;6.70;;;4.00;;
13202;SDS011;6666;51.626;7.530;2023-03-01T12:12:07;7.05;;;3.72;;
13202;SDS011;6666;51.626;7.530;2023-03-01T12:14:57;6.13;;;3.83;;
13202;SDS011;6666;51.626;7.530;2023-03-01T12:17:43;9.00;;;4.35;;
13202;SDS011;6666;51.626;7.530;2023-03-01T12:20:35;8.60;;;3.70;;
13202;SDS011;6666;51.626;7.530;2023-03-01T12:23:34;7.43;;;4.25;;
13202;SDS011;6666;51.626;7.530;2023-03-01T12:26:20;6.15;;;3.75;;
13202;SDS011;6666;51.626;7.530;2023-03-01T12:29:01;6.00;;;4.18;;
13202;SDS011;6666;51.626;7.530;2023-03-01T12:31:48;11.35;;;4.10;;
13202;SDS011;6666;51.626;7.530;2023-03-01T12:37:54;7.53;;;4.07;;
13202;SDS011;6666;51.626;7.530;2023-03-01T12:40:32;8.48;;;4.55;;
13202;SDS011;6666;51.626;7.530;2023-03-01T12:43:15;6.65;;;4.10;;
13202;SDS011;6666;51.626;7.530;2023-03-01T12:46:01;9.80;;;4.28;;
13202;SDS011;6666;51.626;7.530;2023-03-01T12:48:46;9.37;;;4.53;;
13202;SDS011;6666;51.626;7.530;2023-03-01T12:51:23;8.10;;;4.30;;
13202;SDS011;6666;51.626;7.530;2023-03-01T12:53:54;6.55;;;3.95;;
13202;SDS011;6666;51.626;7.530;2023-03-01T12:56:25;7.57;;;4.43;;
13202;SDS011;6666;51.626;7.530;2023-03-01T12:59:00;7.40;;;4.40;;
13202;SDS011;6666;51.626;7.530;2023-03-01T13:01:37;7.03;;;4.60;;
13202;SDS011;6666;51.626;7.530;2023-03-01T13:04:29;7.30;;;4.40;;
13202;SDS011;6666;51.626;7.530;2023-03-01T13:07:15;6.00;;;4.10;;
13202;SDS011;6666;51.626;7.530;2023-03-01T13:09:52;8.27;;;4.10;;
13202;SDS011;6666;51.626;7.530;2023-03-01T13:12:49;6.65;;;4.30;;
13202;SDS011;6666;51.626;7.530;2023-03-01T13:15:27;8.65;;;4.30;;
13202;SDS011;6666;51.626;7.530;2023-03-01T13:18:01;6.88;;;4.43;;
13202;SDS011;6666;51.626;7.530;2023-03-01T13:20:34;6.30;;;4.10;;
13202;SDS011;6666;51.626;7.530;2023-03-01T13:23:13;8.60;;;4.20;;
13202;SDS011;6666;51.626;7.530;2023-03-01T13:26:04;9.60;;;4.53;;
13202;SDS011;6666;51.626;7.530;2023-03-01T13:28:39;7.43;;;4.07;;
13202;SDS011;6666;51.626;7.530;2023-03-01T13:34:41;7.80;;;4.50;;
13202;SDS011;6666;51.626;7.530;2023-03-01T13:37:19;8.77;;;4.10;;
13202;SDS011;6666;51.626;7.530;2023-03-01T13:40:03;7.78;;;4.78;;
13202;SDS011;6666;51.626;7.530;2023-03-01T13:42:57;7.70;;;4.30;;
13202;SDS011;6666;51.626;7.530;2023-03-01T13:45:55;9.63;;;4.28;;
13202;SDS011;6666;51.626;7.530;2023-03-01T13:48:26;8.07;;;4.30;;
13202;SDS011;6666;51.626;7.530;2023-03-01T13:50:57;7.68;;;4.30;;
13202;SDS011;6666;51.626;7.530;2023-03-01T13:53:31;6.07;;;4.07;;
13202;SDS011;6666;51.626;7.530;2023-03-01T13:56:03;6.10;;;4.10;;
13202;SDS011;6666;51.626;7.530;2023-03-01T13:58:49;11.52;;;4.57;;
13202;SDS011;6666;51.626;7.530;2023-03-01T14:01:21;8.38;;;4.28;;
13202;SDS011;6666;51.626;7.530;2023-03-01T14:03:52;7.50;;;4.05;;
13202;SDS011;6666;51.626;7.530;2023-03-01T14:06:21;6.47;;;3.90;;
13202;SDS011;6666;51.626;7.530;2023-03-01T14:09:00;8.65;;;4.53;;
13202;SDS011;6666;51.626;7.530;2023-03-01T14:11:42;7.25;;;4.90;;
13202;SDS011;6666;51.626;7.530;2023-03-01T14:17:35;9.60;;;4.53;;
13202;SDS011;6666;51.626;7.530;2023-03-01T14:20:12;8.20;;;4.33;;
13202;SDS011;6666;51.626;7.530;2023-03-01T14:22:45;8.70;;;4.80;;
13202;SDS011;6666;51.626;7.530;2023-03-01T14:25:23;6.90;;;4.80;;
13202;SDS011;6666;51.626;7.530;2023-03-01T14:27:55;7.22;;;4.40;;
13202;SDS011;6666;51.626;7.530;2023-03-01T14:30:27;12.45;;;4.78;;
13202;SDS011;6666;51.626;7.530;2023-03-01T14:33:01;7.93;;;4.17;;
13202;SDS011;6666;51.626;7.530;2023-03-01T14:35:33;6.45;;;4.40;;
13202;SDS011;6666;51.626;7.530;2023-03-01T14:38:02;7.18;;;4.15;;
13202;SDS011;6666;51.626;7.530;2023-03-01T14:40:34;5.85;;;4.22;;
13202;SDS011;6666;51.626;7.530;2023-03-01T14:43:08;6.90;;;3.72;;
13202;SDS011;6666;51.626;7.530;2023-03-01T14:45:38;7.37;;;4.23;;
13202;SDS011;6666;51.626;7.530;2023-03-01T14:48:07;6.05;;;3.85;;
13202;SDS011;6666;51.626;7.530;2023-03-01T14:50:40;6.30;;;3.60;;
13202;SDS011;6666;51.626;7.530;2023-03-01T14:53:14;6.85;;;3.30;;
13202;SDS011;6666;51.626;7.530;2023-03-01T14:55:47;5.07;;;3.30;;
13202;SDS011;6666;51.626;7.530;2023-03-01T14:58:20;5.57;;;3.05;;
13202;SDS011;6666;51.626;7.530;2023-03-01T15:00:51;5.85;;;3.25;;
13202;SDS011;6666;51.626;7.530;2023-03-01T15:03:25;5.67;;;3.57;;
13202;SDS011;6666;51.626;7.530;2023-03-01T15:05:58;6.78;;;3.90;;
13202;SDS011;6666;51.626;7.530;2023-03-01T15:08:31;4.60;;;3.20;;
13202;SDS011;6666;51.626;7.530;2023-03-01T15:11:04;5.90;;;3.30;;
13202;SDS011;6666;51.626;7.530;2023-03-01T15:13:34;6.60;;;2.70;;
13202;SDS011;6666;51.626;7.530;2023-03-01T15:16:05;5.05;;;3.00;;
13202;SDS011;6666;51.626;7.530;2023-03-01T15:18:35;4.63;;;2.90;;
13202;SDS011;6666;51.626;7.530;2023-03-01T15:21:05;6.07;;;2.70;;
13202;SDS011;6666;51.626;7.530;2023-03-01T15:23:35;4.80;;;2.72;;
13202;SDS011;6666;51.626;7.530;2023-03-01T15:26:16;4.63;;;3.00;;
13202;SDS011;6666;51.626;7.530;2023-03-01T15:28:51;5.85;;;3.22;;
13202;SDS011;6666;51.626;7.530;2023-03-01T15:31:25;5.30;;;3.00;;
13202;SDS011;6666;51.626;7.530;2023-03-01T15:36:49;4.68;;;2.88;;
13202;SDS011;6666;51.626;7.530;2023-03-01T15:39:35;4.43;;;2.90;;
13202;SDS011;6666;51.626;7.530;2023-03-01T15:42:07;6.40;;;2.90;;
13202;SDS011;6666;51.626;7.530;2023-03-01T15:44:38;7.40;;;2.97;;
13202;SDS011;6666;51.626;7.530;2023-03-01T15:47:23;7.43;;;3.38;;
13202;SDS011;6666;51.626;7.530;2023-03-01T15:49:56;6.95;;;3.70;;
13202;SDS011;6666;51.626;7.530;2023-03-01T15:52:28;6.85;;;4.10;;
13202;SDS011;6666;51.626;7.530;2023-03-01T15:55:02;4.30;;;3.30;;
13202;SDS011;6666;51.626;7.530;2023-03-01T15:57:34;6.68;;;3.10;;
13202;SDS011;6666;51.626;7.530;2023-03-01T16:00:02;6.70;;;3.90;;